Weather observations for the past three days for
El Dorado Captain Jack Thomas Airport
Imperial (Metric)
Date Time (cdt) Wind (mph) Vis. (mi.) Weather Sky Cond. Temperature (ºF) Relative Humidity Wind Chill (°F) Heat Index (°F) Pressure Precipitation (in)
Air Dwpt 6 hour altimeter (in) sea level (mb) 1 hr 3 hr 6 hr
Max. Min.
07 17:15 SW 13 G 21 10.00 Fair CLR 75.2 33.8 22% 76 29.87 0.0
07 16:55 SW 15 10.00 Fair CLR 75.2 35.6 24% 76 29.88 0.0
07 16:35 W 12 G 17 10.00 Fair CLR 75.2 35.6 24% 76 29.88 0.0
07 16:15 SW 15 G 18 10.00 Fair CLR 73.4 33.8 23% 29.89 0.0
07 15:15 SW 17 G 21 10.00 Fair CLR 73.4 35.6 25% 29.93 0.0
07 14:55 SW 13 G 21 10.00 Fair CLR 73.4 35.6 25% 29.94 0.0
07 14:35 SW 15 10.00 Fair CLR 71.6 35.6 27% 29.95 0.0
07 14:15 SW 13 G 21 10.00 Fair CLR 71.6 35.6 27% 29.96 0.0
07 13:55 SW 13 G 22 10.00 Fair CLR 69.8 35.6 29% 29.96 0.0
07 13:35 SW 18 G 28 10.00 Fair CLR 69.8 37.4 31% 29.97 0.0
07 13:15 SW 15 G 25 10.00 Fair CLR 68 37.4 33% 29.98 0.0
07 12:55 SW 16 G 23 10.00 Fair CLR 68 39.2 35% 29.99 0.0
07 12:35 W 20 G 24 10.00 Fair CLR 68 39.2 35% 30 0.0
07 12:15 SW 17 G 26 10.00 Fair CLR 66.2 39.2 37% 30.02 0.0
07 11:55 SW 17 G 23 10.00 Fair CLR 64.4 39.2 40% 30.03 0.0
07 11:35 SW 16 G 22 10.00 Partly Cloudy SCT044 64.4 41 43% 30.03 0.0
07 11:15 SW 17 G 24 10.00 Fair CLR 64.4 41 43% 30.04 0.0
07 10:55 SW 20 G 23 10.00 Partly Cloudy SCT040 62.6 41 45% 30.04 0.0
07 10:35 SW 14 G 22 10.00 Partly Cloudy SCT040 60.8 41 48% 30.04 0.0
07 10:15 SW 16 G 24 10.00 Fair CLR 60.8 41 48% 30.05 0.0
07 09:55 SW 13 G 20 10.00 Fair CLR 59 41 51% 30.06 0.0
07 09:35 SW 12 10.00 Fair CLR 59 42.8 55% 30.06 0.0
07 09:15 SW 10 10.00 Fair CLR 55.4 42.8 63% 30.07 0.0
07 08:55 SW 8 10.00 Fair CLR 55.4 42.8 63% 30.07 0.0
07 08:35 SW 7 10.00 Fair CLR 53.6 44.6 72% 30.08 0.0
07 08:15 SW 7 10.00 Fair CLR 51.8 44.6 77% 30.08 0.0
07 07:55 SW 5 10.00 Fair CLR 50 44.6 82% 49 30.08 0.0
07 07:35 Calm 10.00 Fair CLR 48.2 44.6 87% 30.08 0.0
07 07:15 Calm 10.00 Fair CLR 44.6 41 87% 30.08 0.0
07 06:55 Calm 10.00 Fair CLR 44.6 41 87% 30.07 0.0
07 06:35 SW 3 10.00 Fair CLR 44.6 41 87% 30.06 0.0
07 06:15 SW 5 10.00 Fair CLR 44.6 41 87% 43 30.06 0.0
07 05:55 SW 3 10.00 Fair CLR 42.8 41 93% 30.06 0.0
07 05:35 SW 5 10.00 Fair CLR 42.8 41 93% 41 30.07 0.0
07 05:15 SW 3 10.00 Fair CLR 44.6 42.8 93% 30.07 0.0
07 04:55 Calm 10.00 Fair CLR 44.6 42.8 93% 30.07 0.0
07 04:35 Calm 10.00 Fair CLR 44.6 41 87% 30.08 0.0
07 04:15 Calm 10.00 Mostly Cloudy BKN090 46.4 42.8 87% 30.08 0.0
07 03:55 Calm 10.00 Overcast OVC090 46.4 42.8 87% 30.08 0.0
07 03:35 Calm 10.00 Mostly Cloudy BKN090 44.6 41 87% 30.08 0.0
07 03:15 Calm 10.00 Partly Cloudy SCT090 46.4 41 82% 30.09 0.0
07 02:55 NW 5 10.00 Mostly Cloudy BKN090 48.2 42.8 82% 47 30.09 0.0
07 02:35 Calm 10.00 Overcast OVC090 50 42.8 76% 30.09 0.0
07 02:15 Calm 10.00 Overcast OVC090 48.2 42.8 82% 30.09 0.0
07 01:55 W 3 10.00 Mostly Cloudy SCT090 BKN120 48.2 42.8 82% 30.1 0.0
07 01:35 Calm 10.00 Overcast SCT095 OVC120 48.2 44.6 87% 30.09 0.0
07 01:15 Calm 10.00 Overcast OVC120 50 42.8 76% 30.09 0.0
07 00:55 Calm 10.00 Overcast OVC120 50 42.8 76% 30.1 0.0
07 00:35 Calm 10.00 Overcast OVC120 48.2 42.8 82% 30.1 0.0
07 00:15 Calm 10.00 Mostly Cloudy BKN120 46.4 42.8 87% 30.1 0.0
06 23:55 Calm 10.00 Partly Cloudy SCT120 48.2 42.8 82% 30.1 0.0
06 23:35 Calm 10.00 Fair CLR 50 42.8 76% 30.1 0.0
06 23:15 Calm 10.00 Mostly Cloudy BKN100 51.8 42.8 72% 30.1 0.0
06 22:55 Calm 10.00 Overcast OVC110 51.8 41 67% 30.1 0.0
06 22:35 Calm 10.00 Overcast OVC110 51.8 42.8 72% 30.1 0.0
06 22:15 NE 3 10.00 Overcast OVC110 51.8 44.6 77% 30.1 0.0
06 21:55 NE 5 10.00 Overcast OVC100 51.8 41 67% 30.1 0.0
06 21:35 NE 5 10.00 Overcast SCT065 OVC100 53.6 37.4 54% 30.09 0.0
06 21:15 NE 5 10.00 Mostly Cloudy SCT065 BKN100 53.6 37.4 54% 30.09 0.0
06 20:55 NE 3 10.00 Partly Cloudy SCT065 SCT110 53.6 35.6 51% 30.08 0.0
06 20:35 NE 3 10.00 Mostly Cloudy SCT065 BKN110 53.6 39.2 58% 30.07 0.0
06 20:15 NE 3 10.00 Overcast OVC110 55.4 39.2 55% 30.07 0.0
06 19:55 Calm 10.00 Mostly Cloudy BKN110 53.6 39.2 58% 30.06 0.0
06 19:35 N 3 10.00 Partly Cloudy SCT060 SCT100 55.4 37.4 51% 30.06 0.0
06 19:15 N 6 10.00 Mostly Cloudy BKN060 BKN110 59 35.6 42% 30.06 0.0
06 18:55 N 7 10.00 Partly Cloudy SCT060 60.8 33.8 36% 30.05 0.0
06 18:35 N 8 10.00 Mostly Cloudy BKN060 60.8 35.6 39% 30.05 0.0
06 18:15 N 10 10.00 Mostly Cloudy BKN060 60.8 35.6 39% 30.05 0.0
06 17:55 NE 9 10.00 Overcast OVC060 59 35.6 42% 30.05 0.0
06 17:35 NE 8 10.00 Partly Cloudy SCT060 60.8 33.8 36% 30.04 0.0
06 17:15 N 10 10.00 Partly Cloudy SCT060 62.6 33.8 34% 30.04 0.0
06 16:55 NE 6 G 17 10.00 Partly Cloudy SCT055 62.6 33.8 34% 30.05 0.0
06 16:35 N 12 G 16 10.00 Partly Cloudy SCT055 SCT085 62.6 35.6 37% 30.05 0.0
06 16:15 NE 5 10.00 Partly Cloudy SCT085 62.6 33.8 34% 30.05 0.0
06 15:55 N 7 10.00 Partly Cloudy SCT055 SCT080 62.6 33.8 34% 30.07 0.0
06 15:35 N 10 10.00 Partly Cloudy SCT080 60.8 33.8 36% 30.07 0.0
06 15:15 N 6 G 16 10.00 Fair CLR 60.8 32 34% 30.08 0.0
06 14:55 N 9 10.00 Partly Cloudy SCT110 60.8 33.8 36% 30.09 0.0
06 14:35 NE 9 10.00 Mostly Cloudy BKN100 60.8 33.8 36% 30.09 0.0
06 14:15 NE 5 G 20 10.00 Mostly Cloudy BKN090 60.8 32 34% 30.09 0.0
06 13:35 NE 8 10.00 Mostly Cloudy BKN090 60.8 32 34% 30.1 0.0
06 13:15 NE 14 G 20 10.00 Overcast SCT050 OVC090 59 33.8 39% 30.1 0.0
06 12:55 NE 15 G 20 10.00 Overcast OVC090 59 33.8 39% 30.11 0.0
06 12:35 N 14 G 18 10.00 Overcast OVC090 59 33.8 39% 30.11 0.0
06 12:15 NE 10 G 17 10.00 Overcast OVC090 59 35.6 42% 30.12 0.0
06 11:55 N 13 G 18 10.00 Overcast OVC090 57.2 37.4 48% 30.12 0.0
06 11:35 N 10 10.00 Overcast OVC080 55.4 39.2 55% 30.12 0.0
06 11:15 N 8 10.00 Overcast OVC080 53.6 39.2 58% 30.12 0.0
06 10:55 N 8 10.00 Overcast OVC080 51.8 39.2 62% 30.12 0.0
06 10:35 N 9 10.00 Overcast OVC080 51.8 41 67% 30.11 0.0
06 10:15 N 10 10.00 Overcast OVC080 51.8 41 67% 30.11 0.0
06 09:55 NE 8 10.00 Overcast OVC080 50 41 71% 47 30.11 0.0
06 09:35 N 7 10.00 Overcast OVC080 50 41 71% 48 30.11 0.0
06 09:15 N 9 10.00 Overcast OVC080 50 42.8 76% 47 30.1 0.0
06 08:55 N 7 10.00 Overcast OVC080 48.2 41 76% 46 30.09 0.0
06 08:35 N 7 10.00 Overcast OVC080 48.2 42.8 82% 46 30.1 0.0
06 08:15 NE 5 10.00 Overcast OVC080 48.2 42.8 82% 47 30.09 0.0
06 07:55 NE 3 10.00 Overcast OVC090 46.4 42.8 87% 30.08 0.0
06 07:35 N 6 10.00 Overcast OVC090 46.4 42.8 87% 44 30.08 0.0
06 07:15 N 7 10.00 Overcast OVC090 44.6 42.8 93% 41 30.08 0.0
06 06:55 N 7 10.00 Overcast OVC090 44.6 42.8 93% 41 30.05 0.0
06 06:35 Calm 10.00 Overcast OVC090 44.6 42.8 93% 30.03 0.0
06 06:15 Calm 10.00 Overcast OVC090 44.6 42.8 93% 30.04 0.0
06 05:55 Calm 10.00 Overcast SCT065 OVC090 44.6 41 87% 30.03 0.0
06 05:35 NE 5 10.00 Overcast OVC080 44.6 41 87% 43 30.03 0.0
06 05:15 N 6 10.00 Overcast BKN080 OVC100 44.6 41 87% 42 30.03 0.0
06 04:55 NE 8 10.00 Overcast OVC090 44.6 41 87% 41 30.01 0.0
06 04:35 NE 7 10.00 Overcast SCT050 SCT060 OVC090 44.6 41 87% 41 30.02 0.0
06 04:15 N 7 10.00 Light Drizzle SCT043 OVC060 44.6 41 87% 41 30.03 0.0
06 03:55 NE 8 10.00 Drizzle BKN043 OVC050 44.6 41 87% 41 30.01 0.0 0.03
06 03:35 NE 12 10.00 Light Rain SCT043 BKN050 OVC065 44.6 41 87% 39 30.02 0.0 0.01
06 03:15 NE 12 G 18 10.00 Overcast OVC065 44.6 41 87% 39 30.01 0.0
06 02:55 NE 13 G 22 10.00 Light Rain BKN075 OVC080 44.6 41 87% 39 29.98 0.0 0.01
06 02:35 NE 14 10.00 Light Rain SCT039 OVC085 44.6 41 87% 39 29.98 0.0 0.01
06 02:15 N 14 G 18 10.00 Light Rain BKN039 BKN050 OVC065 46.4 41 82% 41 29.99 0.0
06 01:55 N 14 10.00 Light Rain OVC065 46.4 41 82% 41 29.99 0.0 0.01
06 01:35 NE 15 10.00 Light Rain OVC065 46.4 39.2 76% 41 29.97 0.0
06 00:55 N 16 G 23 10.00 Overcast OVC065 50 39.2 67% 45 29.96 0.0
06 00:35 N 14 G 18 10.00 Overcast OVC065 50 35.6 58% 45 29.97 0.0
06 00:15 N 14 G 22 10.00 Overcast OVC065 51.8 35.6 54% 29.96 0.0
05 23:55 NE 13 G 21 10.00 Overcast OVC065 51.8 35.6 54% 29.95 0.0
05 23:35 N 10 G 18 10.00 Overcast OVC065 51.8 37.4 58% 29.96 0.0
05 23:15 NE 15 G 21 10.00 Overcast OVC065 51.8 37.4 58% 29.95 0.0
05 22:55 N 7 10.00 Overcast OVC065 51.8 37.4 58% 29.97 0.0
05 22:35 NE 9 10.00 Overcast OVC065 51.8 37.4 58% 29.96 0.0
05 22:15 N 12 G 18 10.00 Overcast SCT029 SCT035 OVC065 51.8 41 67% 29.96 0.0
05 21:55 N 8 10.00 Overcast SCT029 SCT035 OVC065 50 44.6 82% 47 29.96 0.0
05 21:35 N 9 10.00 Light Rain OVC065 50 44.6 82% 47 29.94 0.0
05 21:15 N 6 10.00 Overcast OVC065 51.8 42.8 72% 29.93 0.0
05 20:55 Calm 10.00 Overcast OVC065 51.8 44.6 77% 29.92 0.0
05 20:35 NE 5 10.00 Overcast OVC065 51.8 44.6 77% 29.9 0.0
05 20:15 Calm 10.00 Overcast OVC065 51.8 44.6 77% 29.9 0.0
05 19:55 NE 3 10.00 Overcast OVC065 51.8 42.8 72% 29.9 0.0
05 19:35 NE 7 10.00 Overcast OVC065 51.8 42.8 72% 29.88 0.0
05 19:15 NE 8 10.00 Overcast OVC065 51.8 42.8 72% 29.88 0.0
05 18:55 NE 10 10.00 Overcast OVC065 51.8 42.8 72% 29.89 0.0
05 18:35 NE 10 10.00 Overcast OVC065 51.8 42.8 72% 29.88 0.0
05 18:15 NE 10 10.00 Overcast OVC065 51.8 42.8 72% 29.88 0.0
05 17:55 NE 9 10.00 Overcast OVC065 51.8 42.8 72% 29.88 0.0
05 17:35 NE 12 10.00 Overcast OVC065 50 42.8 76% 46 29.87 0.0
05 17:15 NE 10 10.00 Light Rain OVC055 50 42.8 76% 46 29.88 0.0
05 16:55 NE 10 G 14 10.00 Overcast SCT020 OVC055 51.8 41 67% 29.89 0.0
05 16:35 NE 14 G 21 10.00 Overcast SCT020 SCT049 OVC055 51.8 41 67% 29.89 0.0
05 16:15 NE 15 10.00 Overcast SCT020 SCT025 OVC055 51.8 41 67% 29.89 0.0
05 15:55 NE 17 10.00 Overcast OVC055 51.8 39.2 62% 29.89 0.0
05 15:35 NE 20 G 26 10.00 Overcast SCT021 BKN045 OVC055 51.8 39.2 62% 29.89 0.0
05 15:15 NE 17 G 23 10.00 Overcast BKN021 BKN042 OVC050 51.8 41 67% 29.89 0.0
05 14:55 NE 20 G 25 10.00 Overcast SCT042 OVC050 51.8 41 67% 29.89 0.0
05 14:35 NE 17 G 25 10.00 Overcast OVC050 51.8 39.2 62% 29.89 0.0
05 14:15 NE 20 G 33 10.00 Overcast OVC050 51.8 37.4 58% 29.88 0.0
05 13:55 NE 26 G 33 10.00 Overcast and Windy OVC050 51.8 35.6 54% 29.87 0.0
05 13:35 NE 21 G 28 10.00 Overcast and Breezy OVC050 53.6 39.2 58% 29.87 0.0
05 13:15 NE 23 G 29 10.00 Overcast and Breezy OVC050 51.8 39.2 62% 29.87 0.0
05 12:55 NE 25 G 29 10.00 Overcast and Breezy OVC050 53.6 39.2 58% 29.88 0.0
05 12:35 NE 17 G 29 10.00 Overcast OVC050 51.8 39.2 62% 29.88 0.0
05 12:15 NE 23 G 31 10.00 Overcast and Breezy OVC050 51.8 37.4 58% 29.88 0.0
05 11:55 NE 25 G 32 10.00 Overcast and Breezy OVC050 51.8 37.4 58% 29.87 0.0
05 11:35 NE 18 G 32 10.00 Overcast OVC050 53.6 37.4 54% 29.87 0.0
05 11:15 NE 24 G 32 10.00 Overcast and Breezy OVC050 53.6 39.2 58% 29.86 0.0
05 10:55 NE 25 G 33 10.00 Overcast and Breezy OVC050 51.8 39.2 62% 29.84 0.0
05 10:35 NE 22 G 31 10.00 Overcast and Breezy OVC050 51.8 37.4 58% 29.84 0.0
05 10:15 NE 23 G 32 10.00 Overcast and Breezy OVC050 51.8 37.4 58% 29.84 0.0
05 09:55 NE 23 G 30 10.00 Overcast and Breezy OVC050 51.8 39.2 62% 29.84 0.0
05 09:35 NE 20 G 26 10.00 Overcast OVC050 51.8 37.4 58% 29.84 0.0
05 09:15 NE 24 G 33 10.00 Overcast and Breezy OVC050 51.8 37.4 58% 29.82 0.0
05 08:55 NE 21 G 30 10.00 Overcast and Breezy OVC050 51.8 37.4 58% 29.82 0.0
05 08:35 NE 25 G 33 10.00 Overcast and Breezy OVC050 51.8 39.2 62% 29.8 0.0
05 08:15 NE 22 G 30 10.00 Overcast and Breezy OVC048 51.8 37.4 58% 29.8 0.0
05 07:55 NE 24 G 28 10.00 Overcast and Breezy OVC048 51.8 37.4 58% 29.8 0.0
05 07:35 NE 23 G 32 10.00 Overcast and Breezy OVC046 51.8 37.4 58% 29.79 0.0
05 07:15 NE 23 G 29 10.00 Overcast and Breezy BKN046 OVC050 53.6 39.2 58% 29.78 0.0
05 06:55 NE 21 G 26 10.00 Overcast and Breezy OVC050 53.6 39.2 58% 29.77 0.0
05 06:35 NE 20 G 26 10.00 Overcast SCT040 OVC050 53.6 41 63% 29.74 0.0
05 06:15 NE 23 G 32 10.00 Overcast and Breezy BKN037 OVC042 53.6 39.2 58% 29.74 0.0
05 05:55 NE 22 G 35 10.00 Overcast and Breezy OVC035 53.6 41 63% 29.72 0.0
05 05:35 NE 24 G 31 10.00 Overcast and Breezy OVC035 53.6 41 63% 29.72 0.0
05 05:15 NE 25 G 31 10.00 Overcast and Breezy OVC033 53.6 41 63% 29.72 0.0
05 04:55 NE 18 G 25 10.00 Overcast OVC033 53.6 42.8 67% 29.72 0.0
05 04:35 NE 24 G 30 10.00 Overcast and Breezy BKN031 OVC038 53.6 42.8 67% 29.72 0.0
05 04:15 NE 23 G 32 10.00 Overcast and Breezy SCT031 OVC038 55.4 42.8 63% 29.71 0.0
05 03:55 NE 24 G 30 10.00 Overcast and Breezy OVC040 55.4 44.6 67% 29.7 0.0
05 03:35 NE 20 G 30 10.00 Overcast OVC040 57.2 44.6 63% 29.68 0.0
05 03:15 NE 17 G 25 10.00 Overcast OVC038 57.2 46.4 67% 29.69 0.0
05 02:55 NE 16 G 23 10.00 Light Rain OVC036 59 50 72% 29.7 0.0
05 02:35 E 13 10.00 Overcast OVC034 60.8 50 68% 29.67 0.0
05 02:15 NE 14 G 18 10.00 Overcast OVC036 60.8 53.6 77% 29.67 0.0
05 01:55 NE 17 G 21 10.00 Overcast OVC036 60.8 53.6 77% 29.65 0.0
05 01:35 NE 16 10.00 Mostly Cloudy BKN038 BKN070 BKN095 62.6 53.6 73% 29.66 0.0
05 01:15 E 9 10.00 Light Rain BKN042 BKN049 BKN070 68 60.8 78% 29.64 0.0
05 00:55 N 9 10.00 Mostly Cloudy SCT042 SCT055 BKN065 64.4 60.8 88% 29.63 0.0
05 00:35 Calm 10.00 Fair CLR 64.4 59 83% 29.63 0.0
05 00:15 SE 7 10.00 Fair CLR 68 59 73% 29.61 0.0
04 23:55 S 7 10.00 Fair CLR 68 59 73% 29.61 0.0
04 23:35 SE 7 10.00 Fair CLR 68 60.8 78% 29.61 0.0
04 23:15 SE 12 10.00 Fair CLR 69.8 60.8 73% 29.6 0.0
04 22:55 SE 7 10.00 Fair CLR 69.8 60.8 73% 29.61 0.0
04 22:35 SE 8 10.00 Fair CLR 71.6 59 65% 29.61 0.0
04 22:15 S 10 10.00 Fair CLR 71.6 59 65% 29.62 0.0
04 21:55 S 8 10.00 Fair CLR 71.6 59 65% 29.63 0.0
04 21:35 S 9 10.00 Fair CLR 71.6 59 65% 29.63 0.0
04 21:15 SE 5 10.00 Fair CLR 71.6 59 65% 29.62 0.0
04 20:55 S 6 10.00 Fair CLR 73.4 57.2 57% 29.6 0.0
04 20:35 S 9 10.00 Fair CLR 73.4 55.4 53% 29.59 0.0
04 20:15 S 10 10.00 Fair CLR 73.4 55.4 53% 29.58 0.0
04 19:55 S 9 10.00 Fair CLR 75.2 55.4 50% 78 29.58 0.0
04 19:35 S 9 10.00 Fair CLR 77 55.4 47% 79 29.59 0.0
04 19:15 S 9 10.00 Fair CLR 78.8 53.6 42% 79 29.59 0.0
04 18:55 S 14 10.00 Fair CLR 78.8 53.6 42% 79 29.59 0.0
04 18:35 S 14 G 18 10.00 Fair CLR 78.8 53.6 42% 79 29.6 0.0
04 18:15 S 13 10.00 Fair CLR 78.8 53.6 42% 79 29.6 0.0
04 17:55 S 13 G 21 10.00 Fair CLR 80.6 53.6 39% 80 29.59 0.0
Date Time (cdt) Wind (mph) Vis. (mi.) Weather Sky Cond. Air Dwpt Max. Min. Relative Humidity Wind Chill (°F) Heat Index (°F) altimeter (in) sea level (mb) 1 hr 3 hr 6 hr
6 hour
Temperature (ºF) Pressure Precipitation (in)